createdAt,value
2018-04-13T00:00:04.738Z,15
2018-04-13T00:15:04.887Z,14.7
2018-04-13T00:30:05.296Z,14.8
2018-04-13T00:45:05.404Z,14.8
2018-04-13T01:00:04.410Z,14.9
2018-04-13T01:15:04.370Z,15.6
2018-04-13T01:30:05.070Z,15.8
2018-04-13T01:45:04.545Z,15.9
2018-04-13T02:00:05.031Z,16
2018-04-13T02:15:04.744Z,16
2018-04-13T02:30:04.841Z,15.7
2018-04-13T02:45:04.326Z,15.8
2018-04-13T03:00:04.779Z,15.7
2018-04-13T03:15:04.806Z,15.6
2018-04-13T03:30:04.597Z,15.5
2018-04-13T03:45:04.719Z,15.6
2018-04-13T04:00:04.817Z,15.5
2018-04-13T04:15:04.280Z,15.5
2018-04-13T04:30:04.724Z,15.6
2018-04-13T04:45:05.075Z,15.4
2018-04-13T05:00:04.507Z,15.3
2018-04-13T05:15:04.906Z,15.3
2018-04-13T05:30:05.148Z,15.2
2018-04-13T05:45:04.636Z,15.4
2018-04-13T06:00:04.564Z,15.8
2018-04-13T06:15:04.465Z,16
2018-04-13T06:30:04.641Z,16.4
2018-04-13T06:45:05.056Z,16.2
2018-04-13T07:00:04.407Z,16.8
2018-04-13T07:15:04.873Z,16.9
2018-04-13T07:30:04.504Z,17
2018-04-13T07:45:04.928Z,17.1
2018-04-13T08:00:05.184Z,17.5
2018-04-13T08:15:04.528Z,17.6
2018-04-13T08:30:05.111Z,18.4
2018-04-13T08:45:04.486Z,18.4
2018-04-13T09:00:04.960Z,22.4
2018-04-13T09:15:04.922Z,28.4
2018-04-13T09:30:04.631Z,31.6
2018-04-13T09:45:04.536Z,28.9
2018-04-13T10:00:04.412Z,24.4
2018-04-13T10:15:04.324Z,22.5
2018-04-13T10:30:04.400Z,21.2
2018-04-13T10:45:04.349Z,20.6
2018-04-13T11:00:04.250Z,21
2018-04-13T11:15:04.628Z,20.7
2018-04-13T11:30:04.277Z,20.4
2018-04-13T11:45:05.153Z,20.3
2018-04-13T12:00:05.159Z,20.8
2018-04-13T12:15:05.173Z,20.7
2018-04-13T12:30:04.788Z,20.2
2018-04-13T12:45:05.139Z,20.7
2018-04-13T13:00:05.106Z,20.8
2018-04-13T13:15:05.024Z,20.9
2018-04-13T13:30:05.123Z,20.7
2018-04-13T13:45:05.006Z,19.8
2018-04-13T14:00:04.893Z,19.5
2018-04-13T14:15:04.318Z,18.5
2018-04-13T14:30:04.906Z,17.7
2018-04-13T14:45:04.290Z,17.4
2018-04-13T15:00:05.159Z,17.4
2018-04-13T15:15:05.000Z,0
2018-04-13T15:30:05.136Z,17.6
2018-04-13T15:45:05.005Z,17.9
2018-04-13T16:00:04.387Z,18
2018-04-13T16:15:04.969Z,17.6
2018-04-13T16:30:04.754Z,17.8
2018-04-13T16:45:05.158Z,17.9
2018-04-13T17:00:05.256Z,18.5
2018-04-13T17:15:04.419Z,18.4
2018-04-13T17:30:05.014Z,18.3
2018-04-13T17:45:05.194Z,18.3
2018-04-13T18:00:04.672Z,18
2018-04-13T18:15:04.586Z,17.2
2018-04-13T18:30:04.878Z,16.6
2018-04-13T18:45:04.301Z,16
2018-04-13T19:00:04.797Z,15.5
2018-04-13T19:15:05.167Z,15.2
2018-04-13T19:30:04.254Z,14.8
2018-04-13T19:45:05.158Z,14.5
2018-04-13T20:00:04.601Z,14.4
2018-04-13T20:15:04.548Z,14.2
2018-04-13T20:30:04.258Z,14
2018-04-13T20:45:04.651Z,13.8
2018-04-13T21:00:04.534Z,13.6
2018-04-13T21:15:04.959Z,13.3
2018-04-13T21:30:05.143Z,13.3
2018-04-13T21:45:04.582Z,13.1
2018-04-13T22:00:04.516Z,13
2018-04-13T22:15:05.059Z,12.7
2018-04-13T22:30:05.157Z,12.6
2018-04-13T22:45:04.498Z,12.6
2018-04-13T23:00:04.923Z,12.3
2018-04-13T23:15:04.799Z,12.2
2018-04-13T23:30:04.861Z,12
2018-04-13T23:45:04.778Z,11.9
